sensor_id;sensor_type;location;lat;lon;timestamp;P1;durP1;ratioP1;P2;durP2;ratioP2
21101;SDS011;10709;49.006;12.100;2023-05-10T12:17:04;2.17;;;0.90;;
21101;SDS011;10709;49.006;12.100;2023-05-10T12:19:49;1.00;;;0.90;;
21101;SDS011;10709;49.006;12.100;2023-05-10T12:22:19;0.80;;;0.80;;
21101;SDS011;10709;49.006;12.100;2023-05-10T12:24:46;0.65;;;0.65;;
21101;SDS011;10709;49.006;12.100;2023-05-10T12:27:13;1.02;;;0.80;;
21101;SDS011;10709;49.006;12.100;2023-05-10T12:29:41;1.17;;;0.90;;
21101;SDS011;10709;49.006;12.100;2023-05-10T12:32:10;0.90;;;0.75;;
21101;SDS011;10709;49.006;12.100;2023-05-10T12:34:37;0.80;;;0.80;;
21101;SDS011;10709;49.006;12.100;2023-05-10T12:37:04;2.17;;;0.93;;
21101;SDS011;10709;49.006;12.100;2023-05-10T12:39:38;1.52;;;1.00;;
21101;SDS011;10709;49.006;12.100;2023-05-10T12:42:08;5.72;;;1.60;;
21101;SDS011;10709;49.006;12.100;2023-05-10T12:44:35;2.53;;;1.58;;
21101;SDS011;10709;49.006;12.100;2023-05-10T12:47:02;6.18;;;1.90;;
21101;SDS011;10709;49.006;12.100;2023-05-10T12:49:28;3.85;;;1.55;;
21101;SDS011;10709;49.006;12.100;2023-05-10T12:51:55;3.22;;;1.60;;
21101;SDS011;10709;49.006;12.100;2023-05-10T12:54:22;3.33;;;1.50;;
21101;SDS011;10709;49.006;12.100;2023-05-10T12:56:48;2.10;;;1.20;;
21101;SDS011;10709;49.006;12.100;2023-05-10T12:59:14;1.43;;;1.00;;
21101;SDS011;10709;49.006;12.100;2023-05-10T13:01:41;1.13;;;1.07;;
21101;SDS011;10709;49.006;12.100;2023-05-10T13:04:07;1.50;;;0.97;;
21101;SDS011;10709;49.006;12.100;2023-05-10T13:06:34;1.77;;;1.00;;
21101;SDS011;10709;49.006;12.100;2023-05-10T13:09:01;2.20;;;1.33;;
21101;SDS011;10709;49.006;12.100;2023-05-10T13:11:27;1.27;;;1.00;;
21101;SDS011;10709;49.006;12.100;2023-05-10T13:13:54;4.63;;;0.70;;
21101;SDS011;10709;49.006;12.100;2023-05-10T13:16:20;1.50;;;0.83;;
21101;SDS011;10709;49.006;12.100;2023-05-10T13:18:47;1.53;;;1.00;;
21101;SDS011;10709;49.006;12.100;2023-05-10T13:21:13;2.73;;;1.20;;
21101;SDS011;10709;49.006;12.100;2023-05-10T13:23:40;1.27;;;1.17;;
21101;SDS011;10709;49.006;12.100;2023-05-10T13:26:06;2.80;;;1.10;;
21101;SDS011;10709;49.006;12.100;2023-05-10T13:28:33;3.20;;;1.37;;
21101;SDS011;10709;49.006;12.100;2023-05-10T13:30:59;1.80;;;1.30;;
21101;SDS011;10709;49.006;12.100;2023-05-10T13:33:29;2.63;;;1.30;;
21101;SDS011;10709;49.006;12.100;2023-05-10T13:35:55;1.87;;;1.40;;
21101;SDS011;10709;49.006;12.100;2023-05-10T13:38:22;2.13;;;1.20;;
21101;SDS011;10709;49.006;12.100;2023-05-10T13:40:48;2.15;;;1.17;;
21101;SDS011;10709;49.006;12.100;2023-05-10T13:43:18;3.05;;;1.48;;
21101;SDS011;10709;49.006;12.100;2023-05-10T13:45:45;1.27;;;1.10;;
21101;SDS011;10709;49.006;12.100;2023-05-10T13:48:12;1.55;;;1.15;;
21101;SDS011;10709;49.006;12.100;2023-05-10T13:50:38;2.17;;;1.07;;
21101;SDS011;10709;49.006;12.100;2023-05-10T13:53:05;1.45;;;1.13;;
21101;SDS011;10709;49.006;12.100;2023-05-10T13:55:31;2.40;;;1.30;;
21101;SDS011;10709;49.006;12.100;2023-05-10T13:57:58;2.67;;;1.58;;
21101;SDS011;10709;49.006;12.100;2023-05-10T14:00:24;2.17;;;1.23;;
21101;SDS011;10709;49.006;12.100;2023-05-10T14:02:51;1.77;;;1.10;;
21101;SDS011;10709;49.006;12.100;2023-05-10T14:05:17;4.05;;;1.48;;
21101;SDS011;10709;49.006;12.100;2023-05-10T14:07:49;1.57;;;1.13;;
21101;SDS011;10709;49.006;12.100;2023-05-10T14:10:16;1.88;;;1.20;;
21101;SDS011;10709;49.006;12.100;2023-05-10T14:12:42;1.67;;;1.40;;
21101;SDS011;10709;49.006;12.100;2023-05-10T14:15:09;1.67;;;1.58;;
21101;SDS011;10709;49.006;12.100;2023-05-10T14:17:37;1.60;;;1.50;;
21101;SDS011;10709;49.006;12.100;2023-05-10T14:20:04;1.97;;;1.53;;
21101;SDS011;10709;49.006;12.100;2023-05-10T14:22:31;2.60;;;1.90;;
21101;SDS011;10709;49.006;12.100;2023-05-10T14:24:57;2.13;;;1.92;;
21101;SDS011;10709;49.006;12.100;2023-05-10T14:27:24;3.65;;;1.77;;
21101;SDS011;10709;49.006;12.100;2023-05-10T14:29:51;2.92;;;1.52;;
21101;SDS011;10709;49.006;12.100;2023-05-10T14:32:17;1.40;;;1.20;;
21101;SDS011;10709;49.006;12.100;2023-05-10T14:34:44;1.73;;;1.50;;
21101;SDS011;10709;49.006;12.100;2023-05-10T14:37:11;3.92;;;1.35;;
21101;SDS011;10709;49.006;12.100;2023-05-10T14:39:37;2.25;;;1.48;;
21101;SDS011;10709;49.006;12.100;2023-05-10T14:42:04;2.30;;;1.50;;
21101;SDS011;10709;49.006;12.100;2023-05-10T14:44:31;2.27;;;1.40;;
21101;SDS011;10709;49.006;12.100;2023-05-10T14:46:57;2.63;;;1.83;;
21101;SDS011;10709;49.006;12.100;2023-05-10T14:49:24;3.83;;;1.85;;
21101;SDS011;10709;49.006;12.100;2023-05-10T14:51:52;2.67;;;1.92;;
21101;SDS011;10709;49.006;12.100;2023-05-10T14:54:18;3.10;;;2.10;;
21101;SDS011;10709;49.006;12.100;2023-05-10T14:56:45;3.43;;;2.23;;
21101;SDS011;10709;49.006;12.100;2023-05-10T14:59:12;3.17;;;2.07;;
21101;SDS011;10709;49.006;12.100;2023-05-10T15:01:39;2.77;;;2.10;;
21101;SDS011;10709;49.006;12.100;2023-05-10T15:04:08;3.30;;;2.23;;
21101;SDS011;10709;49.006;12.100;2023-05-10T15:06:35;3.35;;;2.15;;
21101;SDS011;10709;49.006;12.100;2023-05-10T15:09:03;3.28;;;2.65;;
21101;SDS011;10709;49.006;12.100;2023-05-10T15:11:29;2.80;;;2.28;;
21101;SDS011;10709;49.006;12.100;2023-05-10T15:13:56;4.17;;;2.30;;
21101;SDS011;10709;49.006;12.100;2023-05-10T15:16:22;3.07;;;2.23;;
21101;SDS011;10709;49.006;12.100;2023-05-10T15:18:49;2.40;;;2.17;;
21101;SDS011;10709;49.006;12.100;2023-05-10T15:21:16;2.97;;;1.80;;
21101;SDS011;10709;49.006;12.100;2023-05-10T15:23:42;2.70;;;1.90;;
21101;SDS011;10709;49.006;12.100;2023-05-10T15:26:08;3.63;;;2.22;;
21101;SDS011;10709;49.006;12.100;2023-05-10T15:28:35;3.27;;;1.87;;
21101;SDS011;10709;49.006;12.100;2023-05-10T15:31:01;2.87;;;2.00;;
21101;SDS011;10709;49.006;12.100;2023-05-10T15:33:29;4.13;;;2.00;;
21101;SDS011;10709;49.006;12.100;2023-05-10T15:35:55;2.17;;;1.70;;
21101;SDS011;10709;49.006;12.100;2023-05-10T15:38:21;2.63;;;2.20;;
21101;SDS011;10709;49.006;12.100;2023-05-10T15:40:48;2.27;;;1.83;;
21101;SDS011;10709;49.006;12.100;2023-05-10T15:43:15;2.00;;;1.80;;
21101;SDS011;10709;49.006;12.100;2023-05-10T15:45:42;2.03;;;1.80;;
21101;SDS011;10709;49.006;12.100;2023-05-10T15:48:08;2.20;;;2.00;;
21101;SDS011;10709;49.006;12.100;2023-05-10T15:50:35;2.17;;;1.73;;
21101;SDS011;10709;49.006;12.100;2023-05-10T15:53:01;2.50;;;2.15;;
21101;SDS011;10709;49.006;12.100;2023-05-10T15:55:28;3.27;;;2.30;;
21101;SDS011;10709;49.006;12.100;2023-05-10T15:57:54;2.60;;;1.98;;
21101;SDS011;10709;49.006;12.100;2023-05-10T16:00:20;4.60;;;2.13;;
21101;SDS011;10709;49.006;12.100;2023-05-10T16:02:47;3.90;;;2.40;;
21101;SDS011;10709;49.006;12.100;2023-05-10T16:05:13;4.33;;;2.40;;
21101;SDS011;10709;49.006;12.100;2023-05-10T16:07:41;2.88;;;2.20;;
21101;SDS011;10709;49.006;12.100;2023-05-10T16:10:08;3.10;;;2.10;;
21101;SDS011;10709;49.006;12.100;2023-05-10T16:12:36;3.30;;;2.07;;
21101;SDS011;10709;49.006;12.100;2023-05-10T16:15:04;2.93;;;2.30;;
21101;SDS011;10709;49.006;12.100;2023-05-10T16:17:31;2.73;;;2.10;;
21101;SDS011;10709;49.006;12.100;2023-05-10T16:19:57;4.80;;;2.60;;
21101;SDS011;10709;49.006;12.100;2023-05-10T16:22:24;3.27;;;2.30;;
21101;SDS011;10709;49.006;12.100;2023-05-10T16:24:52;5.30;;;2.10;;
21101;SDS011;10709;49.006;12.100;2023-05-10T16:27:19;4.63;;;2.40;;
21101;SDS011;10709;49.006;12.100;2023-05-10T16:29:46;3.37;;;2.23;;
21101;SDS011;10709;49.006;12.100;2023-05-10T16:32:13;5.73;;;2.53;;
21101;SDS011;10709;49.006;12.100;2023-05-10T16:34:39;3.93;;;2.50;;
21101;SDS011;10709;49.006;12.100;2023-05-10T16:37:06;3.90;;;2.40;;
21101;SDS011;10709;49.006;12.100;2023-05-10T17:48:25;2.73;;;2.10;;
21101;SDS011;10709;49.006;12.100;2023-05-10T17:50:51;2.67;;;1.90;;
21101;SDS011;10709;49.006;12.100;2023-05-10T17:53:18;2.97;;;2.20;;
21101;SDS011;10709;49.006;12.100;2023-05-10T17:55:44;3.73;;;2.30;;
21101;SDS011;10709;49.006;12.100;2023-05-10T17:58:11;2.43;;;2.23;;
21101;SDS011;10709;49.006;12.100;2023-05-10T18:00:37;2.73;;;2.10;;
21101;SDS011;10709;49.006;12.100;2023-05-10T18:03:04;3.00;;;2.70;;
21101;SDS011;10709;49.006;12.100;2023-05-10T18:05:33;2.70;;;2.30;;
21101;SDS011;10709;49.006;12.100;2023-05-10T18:08:02;2.67;;;2.47;;
21101;SDS011;10709;49.006;12.100;2023-05-10T18:10:29;3.43;;;2.83;;
21101;SDS011;10709;49.006;12.100;2023-05-10T18:12:56;2.90;;;2.60;;
21101;SDS011;10709;49.006;12.100;2023-05-10T18:15:23;2.83;;;2.53;;
21101;SDS011;10709;49.006;12.100;2023-05-10T18:17:51;3.00;;;2.70;;
21101;SDS011;10709;49.006;12.100;2023-05-10T18:20:18;3.50;;;2.60;;
21101;SDS011;10709;49.006;12.100;2023-05-10T18:22:44;2.77;;;2.53;;
21101;SDS011;10709;49.006;12.100;2023-05-10T18:25:11;4.50;;;3.53;;
21101;SDS011;10709;49.006;12.100;2023-05-10T18:27:37;3.00;;;2.70;;
21101;SDS011;10709;49.006;12.100;2023-05-10T18:30:04;4.93;;;3.13;;
21101;SDS011;10709;49.006;12.100;2023-05-10T18:32:32;3.43;;;2.60;;
21101;SDS011;10709;49.006;12.100;2023-05-10T18:34:58;2.80;;;2.60;;
21101;SDS011;10709;49.006;12.100;2023-05-10T18:37:25;6.93;;;3.40;;
21101;SDS011;10709;49.006;12.100;2023-05-10T18:39:51;3.40;;;2.90;;
21101;SDS011;10709;49.006;12.100;2023-05-10T18:42:18;3.20;;;2.87;;
21101;SDS011;10709;49.006;12.100;2023-05-10T18:44:45;3.80;;;2.40;;
21101;SDS011;10709;49.006;12.100;2023-05-10T18:47:11;5.73;;;3.20;;
21101;SDS011;10709;49.006;12.100;2023-05-10T18:49:38;4.03;;;2.90;;
21101;SDS011;10709;49.006;12.100;2023-05-10T18:52:04;3.70;;;3.30;;
21101;SDS011;10709;49.006;12.100;2023-05-10T18:54:31;5.27;;;3.10;;
21101;SDS011;10709;49.006;12.100;2023-05-10T18:56:57;5.03;;;3.37;;
21101;SDS011;10709;49.006;12.100;2023-05-10T18:59:25;3.80;;;3.20;;
21101;SDS011;10709;49.006;12.100;2023-05-10T19:01:52;3.97;;;3.23;;
21101;SDS011;10709;49.006;12.100;2023-05-10T19:04:22;4.47;;;2.90;;
21101;SDS011;10709;49.006;12.100;2023-05-10T19:06:48;3.63;;;2.90;;
21101;SDS011;10709;49.006;12.100;2023-05-10T19:09:15;4.53;;;3.37;;
21101;SDS011;10709;49.006;12.100;2023-05-10T19:11:41;2.57;;;2.37;;
21101;SDS011;10709;49.006;12.100;2023-05-10T19:14:08;3.53;;;2.80;;
21101;SDS011;10709;49.006;12.100;2023-05-10T19:16:34;3.13;;;2.77;;
21101;SDS011;10709;49.006;12.100;2023-05-10T19:19:02;6.00;;;2.73;;
21101;SDS011;10709;49.006;12.100;2023-05-10T19:21:28;3.20;;;2.90;;
21101;SDS011;10709;49.006;12.100;2023-05-10T19:23:59;5.57;;;3.33;;
21101;SDS011;10709;49.006;12.100;2023-05-10T19:26:26;3.73;;;2.83;;
21101;SDS011;10709;49.006;12.100;2023-05-10T19:28:53;4.37;;;3.57;;
21101;SDS011;10709;49.006;12.100;2023-05-10T19:31:20;3.93;;;2.70;;
21101;SDS011;10709;49.006;12.100;2023-05-10T19:33:46;2.90;;;2.70;;
21101;SDS011;10709;49.006;12.100;2023-05-10T19:36:13;3.20;;;2.90;;
21101;SDS011;10709;49.006;12.100;2023-05-10T19:38:39;3.83;;;2.93;;
21101;SDS011;10709;49.006;12.100;2023-05-10T19:41:06;3.03;;;2.83;;
21101;SDS011;10709;49.006;12.100;2023-05-10T19:43:33;3.80;;;2.93;;
21101;SDS011;10709;49.006;12.100;2023-05-10T19:46:00;3.60;;;3.30;;
21101;SDS011;10709;49.006;12.100;2023-05-10T19:48:27;5.97;;;3.27;;
21101;SDS011;10709;49.006;12.100;2023-05-10T19:51:01;3.73;;;3.40;;
21101;SDS011;10709;49.006;12.100;2023-05-10T19:53:28;4.03;;;3.40;;
21101;SDS011;10709;49.006;12.100;2023-05-10T19:55:58;3.93;;;3.53;;
21101;SDS011;10709;49.006;12.100;2023-05-10T19:58:27;4.67;;;3.40;;
21101;SDS011;10709;49.006;12.100;2023-05-10T20:00:54;3.67;;;3.30;;
21101;SDS011;10709;49.006;12.100;2023-05-10T20:03:21;3.50;;;3.20;;
21101;SDS011;10709;49.006;12.100;2023-05-10T20:05:47;5.57;;;3.90;;
21101;SDS011;10709;49.006;12.100;2023-05-10T20:08:14;3.93;;;3.50;;
21101;SDS011;10709;49.006;12.100;2023-05-10T20:10:40;3.57;;;3.00;;
21101;SDS011;10709;49.006;12.100;2023-05-10T20:13:06;6.07;;;3.53;;
21101;SDS011;10709;49.006;12.100;2023-05-10T20:15:33;3.70;;;3.40;;
21101;SDS011;10709;49.006;12.100;2023-05-10T20:17:59;4.90;;;3.30;;
21101;SDS011;10709;49.006;12.100;2023-05-10T20:20:26;3.50;;;3.10;;
21101;SDS011;10709;49.006;12.100;2023-05-10T20:22:53;4.93;;;3.30;;
21101;SDS011;10709;49.006;12.100;2023-05-10T20:25:19;7.83;;;3.80;;
21101;SDS011;10709;49.006;12.100;2023-05-10T20:27:46;4.13;;;3.50;;
21101;SDS011;10709;49.006;12.100;2023-05-10T20:30:12;5.47;;;3.67;;
21101;SDS011;10709;49.006;12.100;2023-05-10T20:32:39;4.00;;;3.53;;
21101;SDS011;10709;49.006;12.100;2023-05-10T20:35:05;4.60;;;3.47;;
21101;SDS011;10709;49.006;12.100;2023-05-10T20:37:32;5.90;;;3.23;;
21101;SDS011;10709;49.006;12.100;2023-05-10T20:39:58;4.57;;;3.43;;
21101;SDS011;10709;49.006;12.100;2023-05-10T20:42:25;3.37;;;3.00;;
21101;SDS011;10709;49.006;12.100;2023-05-10T20:44:52;4.07;;;3.50;;
21101;SDS011;10709;49.006;12.100;2023-05-10T20:47:18;3.83;;;3.43;;
21101;SDS011;10709;49.006;12.100;2023-05-10T20:49:45;3.63;;;3.00;;
21101;SDS011;10709;49.006;12.100;2023-05-10T20:52:11;3.53;;;3.20;;
21101;SDS011;10709;49.006;12.100;2023-05-10T20:54:38;5.43;;;3.20;;
21101;SDS011;10709;49.006;12.100;2023-05-10T20:57:04;3.73;;;2.93;;
21101;SDS011;10709;49.006;12.100;2023-05-10T20:59:31;3.50;;;3.10;;
21101;SDS011;10709;49.006;12.100;2023-05-10T21:01:57;3.30;;;3.00;;
21101;SDS011;10709;49.006;12.100;2023-05-10T21:04:24;4.03;;;3.60;;
21101;SDS011;10709;49.006;12.100;2023-05-10T21:06:51;4.40;;;3.17;;
21101;SDS011;10709;49.006;12.100;2023-05-10T21:09:18;3.37;;;3.07;;
21101;SDS011;10709;49.006;12.100;2023-05-10T21:11:44;3.10;;;2.57;;
21101;SDS011;10709;49.006;12.100;2023-05-10T21:14:11;3.27;;;2.97;;
21101;SDS011;10709;49.006;12.100;2023-05-10T21:16:37;5.00;;;3.20;;
21101;SDS011;10709;49.006;12.100;2023-05-10T21:19:04;3.43;;;2.77;;
21101;SDS011;10709;49.006;12.100;2023-05-10T21:21:32;3.57;;;3.10;;
21101;SDS011;10709;49.006;12.100;2023-05-10T21:23:59;3.57;;;3.10;;
21101;SDS011;10709;49.006;12.100;2023-05-10T21:26:25;3.73;;;2.80;;
21101;SDS011;10709;49.006;12.100;2023-05-10T21:28:52;4.30;;;3.30;;
21101;SDS011;10709;49.006;12.100;2023-05-10T21:31:18;3.87;;;3.47;;
21101;SDS011;10709;49.006;12.100;2023-05-10T21:33:45;3.37;;;3.07;;
21101;SDS011;10709;49.006;12.100;2023-05-10T21:36:11;4.13;;;2.63;;
21101;SDS011;10709;49.006;12.100;2023-05-10T21:38:38;4.20;;;2.50;;
21101;SDS011;10709;49.006;12.100;2023-05-10T21:41:05;3.63;;;2.57;;
21101;SDS011;10709;49.006;12.100;2023-05-10T21:43:33;3.03;;;2.77;;
21101;SDS011;10709;49.006;12.100;2023-05-10T21:45:59;3.63;;;2.90;;
21101;SDS011;10709;49.006;12.100;2023-05-10T21:48:26;4.20;;;3.63;;
21101;SDS011;10709;49.006;12.100;2023-05-10T21:50:53;4.07;;;2.80;;
21101;SDS011;10709;49.006;12.100;2023-05-10T21:53:19;4.17;;;2.80;;
21101;SDS011;10709;49.006;12.100;2023-05-10T21:55:46;3.00;;;2.70;;
21101;SDS011;10709;49.006;12.100;2023-05-10T21:58:13;4.93;;;3.30;;
21101;SDS011;10709;49.006;12.100;2023-05-10T22:00:39;4.03;;;3.10;;
21101;SDS011;10709;49.006;12.100;2023-05-10T22:03:06;6.40;;;2.80;;
21101;SDS011;10709;49.006;12.100;2023-05-10T22:05:32;3.10;;;2.80;;
21101;SDS011;10709;49.006;12.100;2023-05-10T22:07:59;3.27;;;2.57;;
21101;SDS011;10709;49.006;12.100;2023-05-10T22:10:26;5.33;;;3.03;;
21101;SDS011;10709;49.006;12.100;2023-05-10T22:12:52;2.80;;;2.50;;
21101;SDS011;10709;49.006;12.100;2023-05-10T22:15:19;7.43;;;3.03;;
21101;SDS011;10709;49.006;12.100;2023-05-10T22:17:45;4.33;;;3.00;;
21101;SDS011;10709;49.006;12.100;2023-05-10T22:20:12;3.03;;;2.57;;
21101;SDS011;10709;49.006;12.100;2023-05-10T22:22:38;3.70;;;2.77;;
21101;SDS011;10709;49.006;12.100;2023-05-10T22:25:05;5.13;;;2.97;;
21101;SDS011;10709;49.006;12.100;2023-05-10T22:27:33;4.37;;;2.90;;
21101;SDS011;10709;49.006;12.100;2023-05-10T22:29:59;5.67;;;2.90;;
21101;SDS011;10709;49.006;12.100;2023-05-10T22:32:26;4.63;;;2.90;;
21101;SDS011;10709;49.006;12.100;2023-05-10T22:34:53;3.30;;;2.70;;
21101;SDS011;10709;49.006;12.100;2023-05-10T22:37:20;4.80;;;2.73;;
21101;SDS011;10709;49.006;12.100;2023-05-10T22:39:47;2.90;;;2.60;;
21101;SDS011;10709;49.006;12.100;2023-05-10T22:42:14;3.60;;;2.37;;
21101;SDS011;10709;49.006;12.100;2023-05-10T22:44:41;2.70;;;2.43;;
21101;SDS011;10709;49.006;12.100;2023-05-10T22:47:09;4.93;;;3.10;;
21101;SDS011;10709;49.006;12.100;2023-05-10T22:49:36;3.23;;;2.67;;
21101;SDS011;10709;49.006;12.100;2023-05-10T22:52:02;3.40;;;2.70;;
21101;SDS011;10709;49.006;12.100;2023-05-10T22:54:29;4.20;;;2.60;;
21101;SDS011;10709;49.006;12.100;2023-05-10T22:56:55;3.00;;;2.53;;
21101;SDS011;10709;49.006;12.100;2023-05-10T22:59:22;4.60;;;2.83;;
21101;SDS011;10709;49.006;12.100;2023-05-10T23:01:48;5.03;;;2.77;;
21101;SDS011;10709;49.006;12.100;2023-05-10T23:04:15;4.20;;;3.27;;
21101;SDS011;10709;49.006;12.100;2023-05-10T23:06:42;3.07;;;2.70;;
21101;SDS011;10709;49.006;12.100;2023-05-10T23:09:08;6.30;;;3.53;;
21101;SDS011;10709;49.006;12.100;2023-05-10T23:11:35;4.07;;;2.90;;
21101;SDS011;10709;49.006;12.100;2023-05-10T23:14:02;2.97;;;2.53;;
21101;SDS011;10709;49.006;12.100;2023-05-10T23:16:28;4.60;;;2.70;;
21101;SDS011;10709;49.006;12.100;2023-05-10T23:18:55;2.67;;;2.43;;
21101;SDS011;10709;49.006;12.100;2023-05-10T23:21:22;4.00;;;2.63;;
21101;SDS011;10709;49.006;12.100;2023-05-10T23:23:50;2.33;;;2.13;;
21101;SDS011;10709;49.006;12.100;2023-05-10T23:26:17;4.80;;;2.63;;
21101;SDS011;10709;49.006;12.100;2023-05-10T23:28:43;4.47;;;2.50;;
21101;SDS011;10709;49.006;12.100;2023-05-10T23:31:10;3.83;;;2.70;;
21101;SDS011;10709;49.006;12.100;2023-05-10T23:33:36;3.70;;;2.23;;
21101;SDS011;10709;49.006;12.100;2023-05-10T23:36:03;3.47;;;2.60;;
21101;SDS011;10709;49.006;12.100;2023-05-10T23:38:30;3.20;;;2.67;;
21101;SDS011;10709;49.006;12.100;2023-05-10T23:40:56;3.37;;;2.50;;
21101;SDS011;10709;49.006;12.100;2023-05-10T23:43:23;2.93;;;2.63;;
21101;SDS011;10709;49.006;12.100;2023-05-10T23:45:51;4.63;;;2.20;;
21101;SDS011;10709;49.006;12.100;2023-05-10T23:48:21;4.53;;;2.60;;
21101;SDS011;10709;49.006;12.100;2023-05-10T23:50:48;3.60;;;2.70;;
21101;SDS011;10709;49.006;12.100;2023-05-10T23:53:14;2.47;;;2.10;;
21101;SDS011;10709;49.006;12.100;2023-05-10T23:55:41;3.83;;;2.40;;
21101;SDS011;10709;49.006;12.100;2023-05-10T23:58:08;3.13;;;2.63;;
